ENSH/SVJ METAR and TAF weather

Enter ICAO airport designator
Station Type Date Time Source
ENSH METAR 2022/01/29 09:50 UTC NOAA

ENSH 290950Z 07022G32KT 9999 VCSH FEW023 BKN029 M01/M05 Q0979 RMK WIND 150FT 06029G44KT


Station Type Date Time Source
ENSH Decoded METAR 2022/01/29 09:50 UTC NOAA

Svolvaer / Helle, Norway (ENSH) 68-15N 014-40E 9M
Jan 29, 2022 - 04:50 AM EST / 2022.01.29 0950 UTC
Wind: from the ENE (070 degrees) at 25 MPH (22 KT) gusting to 37 MPH (32 KT):0
Visibility: greater than 7 mile(s):0
Sky conditions: mostly cloudy
Weather: showers in the vicinity
Temperature: 30 F (-1 C)
Windchill: 15 F (-9 C):1
Dew Point: 23 F (-5 C)
Relative Humidity: 74%
Pressure (altimeter): 28.91 in. Hg (0979 hPa)
ob: ENSH 290950Z 07022G32KT 9999 VCSH FEW023 BKN029 M01/M05 Q0979 RMK WIND 150FT 06029G44KT
cycle: 10

Station Type Date Time Source
ENSH TAF UTC NOAA

Error!

Example: see airport list